sensor_id;sensor_type;location;lat;lon;timestamp;pressure;altitude;pressure_sealevel;temperature;humidity
78717;BME280;68045;50.042;14.432;2023-08-08T00:03:27;98247.34;;;12.84;77.77
78717;BME280;68045;50.042;14.432;2023-08-08T00:07:28;98254.31;;;12.90;77.32
78717;BME280;68045;50.042;14.432;2023-08-08T00:11:32;98235.19;;;12.88;77.02
78717;BME280;68045;50.042;14.432;2023-08-08T00:15:33;98242.84;;;12.85;77.07
78717;BME280;68045;50.042;14.432;2023-08-08T00:19:34;98242.34;;;12.88;77.35
78717;BME280;68045;50.042;14.432;2023-08-08T00:23:35;98239.06;;;12.81;77.55
78717;BME280;68045;50.042;14.432;2023-08-08T00:27:35;98241.84;;;12.69;78.30
78717;BME280;68045;50.042;14.432;2023-08-08T00:31:42;98242.13;;;12.73;78.32
78717;BME280;68045;50.042;14.432;2023-08-08T00:35:43;98244.72;;;12.68;78.14
78717;BME280;68045;50.042;14.432;2023-08-08T00:39:44;98242.06;;;12.68;78.16
78717;BME280;68045;50.042;14.432;2023-08-08T00:43:46;98245.13;;;12.59;77.90
78717;BME280;68045;50.042;14.432;2023-08-08T00:47:47;98244.34;;;12.59;77.91
78717;BME280;68045;50.042;14.432;2023-08-08T00:51:49;98243.16;;;12.50;77.85
78717;BME280;68045;50.042;14.432;2023-08-08T00:55:53;98249.53;;;12.54;77.82
78717;BME280;68045;50.042;14.432;2023-08-08T00:59:54;98236.63;;;12.57;77.68
78717;BME280;68045;50.042;14.432;2023-08-08T01:03:55;98236.81;;;12.51;78.32
78717;BME280;68045;50.042;14.432;2023-08-08T01:08:06;98234.00;;;12.57;77.76
78717;BME280;68045;50.042;14.432;2023-08-08T01:12:08;98244.03;;;12.55;77.61
78717;BME280;68045;50.042;14.432;2023-08-08T01:16:11;98231.09;;;12.59;77.34
78717;BME280;68045;50.042;14.432;2023-08-08T01:20:14;98219.88;;;12.52;77.61
78717;BME280;68045;50.042;14.432;2023-08-08T01:24:20;98233.78;;;12.42;78.21
78717;BME280;68045;50.042;14.432;2023-08-08T01:28:22;98244.63;;;12.41;78.07
78717;BME280;68045;50.042;14.432;2023-08-08T01:32:23;98235.22;;;12.33;78.32
78717;BME280;68045;50.042;14.432;2023-08-08T01:36:48;98236.19;;;12.27;78.64
78717;BME280;68045;50.042;14.432;2023-08-08T01:40:50;98231.88;;;12.21;78.92
78717;BME280;68045;50.042;14.432;2023-08-08T01:44:52;98223.59;;;12.17;79.65
78717;BME280;68045;50.042;14.432;2023-08-08T01:48:53;98215.34;;;12.14;78.93
78717;BME280;68045;50.042;14.432;2023-08-08T01:52:56;98214.84;;;12.17;78.62
78717;BME280;68045;50.042;14.432;2023-08-08T01:56:56;98216.06;;;12.09;79.03
78717;BME280;68045;50.042;14.432;2023-08-08T02:00:57;98207.97;;;12.16;78.46
78717;BME280;68045;50.042;14.432;2023-08-08T02:04:58;98216.84;;;12.09;79.43
78717;BME280;68045;50.042;14.432;2023-08-08T02:08:59;98232.19;;;12.07;78.74
78717;BME280;68045;50.042;14.432;2023-08-08T02:13:00;98224.56;;;12.11;78.95
78717;BME280;68045;50.042;14.432;2023-08-08T02:17:01;98228.56;;;12.14;78.21
78717;BME280;68045;50.042;14.432;2023-08-08T02:21:02;98209.41;;;12.06;78.57
78717;BME280;68045;50.042;14.432;2023-08-08T02:25:03;98226.16;;;12.12;77.62
78717;BME280;68045;50.042;14.432;2023-08-08T02:29:04;98232.66;;;12.04;78.40
78717;BME280;68045;50.042;14.432;2023-08-08T02:33:05;98226.25;;;12.00;78.47
78717;BME280;68045;50.042;14.432;2023-08-08T02:37:06;98209.00;;;11.98;78.43
78717;BME280;68045;50.042;14.432;2023-08-08T02:41:07;98215.16;;;12.03;78.40
78717;BME280;68045;50.042;14.432;2023-08-08T02:45:08;98214.75;;;12.12;77.54
78717;BME280;68045;50.042;14.432;2023-08-08T02:49:09;98217.34;;;12.06;77.96
78717;BME280;68045;50.042;14.432;2023-08-08T02:53:10;98215.75;;;12.05;77.61
78717;BME280;68045;50.042;14.432;2023-08-08T02:57:18;98205.56;;;12.14;77.37
78717;BME280;68045;50.042;14.432;2023-08-08T03:01:19;98212.94;;;12.29;76.53
78717;BME280;68045;50.042;14.432;2023-08-08T03:05:22;98210.19;;;12.24;76.99
78717;BME280;68045;50.042;14.432;2023-08-08T03:09:23;98213.00;;;12.34;76.65
78717;BME280;68045;50.042;14.432;2023-08-08T03:13:24;98213.31;;;12.37;76.48
78717;BME280;68045;50.042;14.432;2023-08-08T03:17:27;98230.97;;;12.32;76.31
78717;BME280;68045;50.042;14.432;2023-08-08T03:21:28;98215.16;;;12.37;75.95
78717;BME280;68045;50.042;14.432;2023-08-08T03:25:29;98213.94;;;12.45;75.96
78717;BME280;68045;50.042;14.432;2023-08-08T03:29:31;98224.06;;;12.48;75.82
78717;BME280;68045;50.042;14.432;2023-08-08T03:33:33;98230.38;;;12.47;75.63
78717;BME280;68045;50.042;14.432;2023-08-08T03:37:36;98227.72;;;12.47;75.90
78717;BME280;68045;50.042;14.432;2023-08-08T03:41:37;98228.63;;;12.52;76.06
78717;BME280;68045;50.042;14.432;2023-08-08T03:45:38;98234.66;;;12.48;75.83
78717;BME280;68045;50.042;14.432;2023-08-08T03:49:39;98236.56;;;12.52;76.21
78717;BME280;68045;50.042;14.432;2023-08-08T03:53:40;98235.03;;;12.56;75.79
78717;BME280;68045;50.042;14.432;2023-08-08T03:57:41;98227.19;;;12.61;76.20
78717;BME280;68045;50.042;14.432;2023-08-08T04:01:43;98223.50;;;12.46;76.71
78717;BME280;68045;50.042;14.432;2023-08-08T04:05:45;98222.34;;;12.58;77.06
78717;BME280;68045;50.042;14.432;2023-08-08T04:09:47;98215.63;;;12.51;76.87
78717;BME280;68045;50.042;14.432;2023-08-08T04:13:48;98238.25;;;12.58;76.78
78717;BME280;68045;50.042;14.432;2023-08-08T04:17:49;98222.84;;;12.55;77.08
78717;BME280;68045;50.042;14.432;2023-08-08T04:21:50;98224.19;;;12.58;77.22
78717;BME280;68045;50.042;14.432;2023-08-08T04:25:52;98231.66;;;12.61;77.33
78717;BME280;68045;50.042;14.432;2023-08-08T04:29:53;98246.81;;;12.65;77.26
78717;BME280;68045;50.042;14.432;2023-08-08T04:33:53;98249.31;;;12.55;77.57
78717;BME280;68045;50.042;14.432;2023-08-08T04:38:01;98242.97;;;12.56;77.37
78717;BME280;68045;50.042;14.432;2023-08-08T04:42:02;98249.88;;;12.57;77.03
78717;BME280;68045;50.042;14.432;2023-08-08T04:46:03;98245.94;;;12.60;77.25
78717;BME280;68045;50.042;14.432;2023-08-08T04:50:04;98256.31;;;12.61;76.94
78717;BME280;68045;50.042;14.432;2023-08-08T04:54:05;98248.25;;;12.73;76.24
78717;BME280;68045;50.042;14.432;2023-08-08T04:58:06;98251.03;;;12.83;76.01
78717;BME280;68045;50.042;14.432;2023-08-08T05:02:06;98265.47;;;12.92;75.15
78717;BME280;68045;50.042;14.432;2023-08-08T05:06:07;98264.06;;;13.07;74.73
78717;BME280;68045;50.042;14.432;2023-08-08T05:10:08;98253.81;;;13.15;73.83
78717;BME280;68045;50.042;14.432;2023-08-08T05:14:09;98257.47;;;13.31;73.89
78717;BME280;68045;50.042;14.432;2023-08-08T05:18:10;98258.34;;;13.37;73.69
78717;BME280;68045;50.042;14.432;2023-08-08T05:22:11;98254.78;;;13.26;73.61
78717;BME280;68045;50.042;14.432;2023-08-08T05:26:12;98254.53;;;13.28;73.73
78717;BME280;68045;50.042;14.432;2023-08-08T05:30:12;98264.41;;;13.15;73.94
78717;BME280;68045;50.042;14.432;2023-08-08T05:34:13;98259.66;;;13.17;74.52
78717;BME280;68045;50.042;14.432;2023-08-08T05:38:14;98253.59;;;13.39;73.68
78717;BME280;68045;50.042;14.432;2023-08-08T05:42:15;98249.81;;;13.57;73.31
78717;BME280;68045;50.042;14.432;2023-08-08T05:46:16;98256.41;;;13.81;72.19
78717;BME280;68045;50.042;14.432;2023-08-08T05:50:17;98240.88;;;13.90;71.91
78717;BME280;68045;50.042;14.432;2023-08-08T05:54:18;98248.38;;;13.98;71.61
78717;BME280;68045;50.042;14.432;2023-08-08T05:58:19;98233.66;;;14.17;71.35
78717;BME280;68045;50.042;14.432;2023-08-08T06:02:20;98229.53;;;14.32;70.77
78717;BME280;68045;50.042;14.432;2023-08-08T06:06:21;98246.47;;;14.25;71.04
78717;BME280;68045;50.042;14.432;2023-08-08T06:10:22;98241.84;;;14.11;71.09
78717;BME280;68045;50.042;14.432;2023-08-08T06:14:23;98242.63;;;14.11;71.10
78717;BME280;68045;50.042;14.432;2023-08-08T06:18:23;98240.09;;;14.26;70.63
78717;BME280;68045;50.042;14.432;2023-08-08T06:22:25;98248.06;;;14.64;69.42
78717;BME280;68045;50.042;14.432;2023-08-08T06:26:25;98256.06;;;14.64;68.71
78717;BME280;68045;50.042;14.432;2023-08-08T06:30:26;98238.34;;;14.79;69.30
78717;BME280;68045;50.042;14.432;2023-08-08T06:34:27;98255.28;;;14.68;69.23
78717;BME280;68045;50.042;14.432;2023-08-08T06:38:28;98248.44;;;14.77;68.92
78717;BME280;68045;50.042;14.432;2023-08-08T06:42:29;98234.09;;;14.78;69.15
78717;BME280;68045;50.042;14.432;2023-08-08T06:46:35;98246.53;;;15.25;67.03
78717;BME280;68045;50.042;14.432;2023-08-08T06:50:36;98253.78;;;15.45;66.52
78717;BME280;68045;50.042;14.432;2023-08-08T06:54:36;98238.03;;;15.23;67.35
78717;BME280;68045;50.042;14.432;2023-08-08T06:58:37;98246.78;;;15.19;67.18
78717;BME280;68045;50.042;14.432;2023-08-08T07:02:38;98241.44;;;15.08;67.45
78717;BME280;68045;50.042;14.432;2023-08-08T07:06:40;98234.06;;;15.41;66.62
78717;BME280;68045;50.042;14.432;2023-08-08T07:10:41;98238.97;;;15.85;65.45
78717;BME280;68045;50.042;14.432;2023-08-08T07:14:42;98245.16;;;16.21;63.24
78717;BME280;68045;50.042;14.432;2023-08-08T07:18:43;98256.06;;;16.09;63.50
78717;BME280;68045;50.042;14.432;2023-08-08T07:22:43;98255.78;;;16.16;62.93
78717;BME280;68045;50.042;14.432;2023-08-08T07:26:44;98246.72;;;16.47;61.29
78717;BME280;68045;50.042;14.432;2023-08-08T07:30:45;98247.69;;;17.08;59.35
78717;BME280;68045;50.042;14.432;2023-08-08T07:34:46;98250.91;;;17.59;57.83
78717;BME280;68045;50.042;14.432;2023-08-08T07:38:47;98251.56;;;17.90;57.09
78717;BME280;68045;50.042;14.432;2023-08-08T07:42:49;98263.09;;;17.75;55.98
78717;BME280;68045;50.042;14.432;2023-08-08T07:46:50;98245.94;;;17.37;56.98
78717;BME280;68045;50.042;14.432;2023-08-08T07:50:51;98257.25;;;17.14;56.92
78717;BME280;68045;50.042;14.432;2023-08-08T07:54:51;98244.28;;;17.46;56.75
78717;BME280;68045;50.042;14.432;2023-08-08T07:58:53;98262.81;;;17.27;56.56
78717;BME280;68045;50.042;14.432;2023-08-08T08:02:54;98248.50;;;16.98;56.94
78717;BME280;68045;50.042;14.432;2023-08-08T08:06:55;98243.28;;;17.32;56.38
78717;BME280;68045;50.042;14.432;2023-08-08T08:10:55;98244.34;;;17.36;55.22
78717;BME280;68045;50.042;14.432;2023-08-08T08:14:56;98243.56;;;17.36;55.49
78717;BME280;68045;50.042;14.432;2023-08-08T08:18:58;98231.50;;;17.93;52.92
78717;BME280;68045;50.042;14.432;2023-08-08T08:22:58;98225.22;;;17.73;53.40
78717;BME280;68045;50.042;14.432;2023-08-08T08:26:59;98214.34;;;18.62;52.21
78717;BME280;68045;50.042;14.432;2023-08-08T08:31:05;98241.78;;;19.20;48.19
78717;BME280;68045;50.042;14.432;2023-08-08T08:35:06;98222.03;;;19.59;49.60
78717;BME280;68045;50.042;14.432;2023-08-08T08:39:08;98206.56;;;18.89;50.85
78717;BME280;68045;50.042;14.432;2023-08-08T08:43:09;98215.84;;;18.73;49.63
78717;BME280;68045;50.042;14.432;2023-08-08T08:47:12;98213.94;;;19.21;50.60
78717;BME280;68045;50.042;14.432;2023-08-08T08:51:13;98193.72;;;19.72;49.35
78717;BME280;68045;50.042;14.432;2023-08-08T08:55:16;98199.66;;;19.88;48.03
78717;BME280;68045;50.042;14.432;2023-08-08T08:59:17;98195.38;;;20.19;47.75
78717;BME280;68045;50.042;14.432;2023-08-08T09:03:17;98189.44;;;19.71;46.82
78717;BME280;68045;50.042;14.432;2023-08-08T09:07:22;98201.66;;;20.75;45.71
78717;BME280;68045;50.042;14.432;2023-08-08T09:11:26;98199.97;;;21.56;42.77
78717;BME280;68045;50.042;14.432;2023-08-08T09:15:34;98198.63;;;21.18;42.83
78717;BME280;68045;50.042;14.432;2023-08-08T09:19:35;98203.31;;;20.98;43.51
78717;BME280;68045;50.042;14.432;2023-08-08T09:23:37;98204.94;;;20.39;44.89
78717;BME280;68045;50.042;14.432;2023-08-08T09:27:41;98205.00;;;20.20;45.95
78717;BME280;68045;50.042;14.432;2023-08-08T09:31:42;98207.94;;;20.38;45.56
78717;BME280;68045;50.042;14.432;2023-08-08T09:35:43;98196.34;;;21.38;42.29
78717;BME280;68045;50.042;14.432;2023-08-08T09:39:44;98192.69;;;23.26;38.57
78717;BME280;68045;50.042;14.432;2023-08-08T09:43:47;98198.88;;;23.44;38.15
78717;BME280;68045;50.042;14.432;2023-08-08T09:47:50;98215.69;;;22.53;39.27
78717;BME280;68045;50.042;14.432;2023-08-08T09:51:51;98190.88;;;22.56;40.19
78717;BME280;68045;50.042;14.432;2023-08-08T09:55:54;98191.59;;;23.44;37.83
78717;BME280;68045;50.042;14.432;2023-08-08T09:59:55;98179.25;;;22.15;38.60
78717;BME280;68045;50.042;14.432;2023-08-08T10:03:56;98187.06;;;22.57;39.36
78717;BME280;68045;50.042;14.432;2023-08-08T10:07:58;98181.41;;;22.67;38.60
78717;BME280;68045;50.042;14.432;2023-08-08T10:11:59;98178.38;;;21.84;38.53
78717;BME280;68045;50.042;14.432;2023-08-08T10:16:04;98171.69;;;24.82;33.38
78717;BME280;68045;50.042;14.432;2023-08-08T10:20:09;98179.78;;;24.44;33.29
78717;BME280;68045;50.042;14.432;2023-08-08T10:24:20;98169.91;;;27.43;29.43
78717;BME280;68045;50.042;14.432;2023-08-08T10:28:21;98161.47;;;27.72;27.72
78717;BME280;68045;50.042;14.432;2023-08-08T10:32:26;98172.53;;;25.54;31.65
78717;BME280;68045;50.042;14.432;2023-08-08T10:36:48;98156.31;;;24.36;34.01
78717;BME280;68045;50.042;14.432;2023-08-08T10:40:56;98158.50;;;22.78;36.07
78717;BME280;68045;50.042;14.432;2023-08-08T10:44:59;98138.22;;;26.94;29.94
78717;BME280;68045;50.042;14.432;2023-08-08T10:49:01;98146.19;;;27.27;27.77
78717;BME280;68045;50.042;14.432;2023-08-08T10:53:02;98136.97;;;26.31;29.13
78717;BME280;68045;50.042;14.432;2023-08-08T10:57:03;98137.38;;;29.09;24.69
78717;BME280;68045;50.042;14.432;2023-08-08T11:01:05;98135.59;;;29.17;24.18
78717;BME280;68045;50.042;14.432;2023-08-08T11:05:09;98120.69;;;26.18;28.69
78717;BME280;68045;50.042;14.432;2023-08-08T11:09:10;98128.31;;;26.86;27.75
78717;BME280;68045;50.042;14.432;2023-08-08T11:13:12;98104.97;;;28.34;25.50
78717;BME280;68045;50.042;14.432;2023-08-08T11:17:12;98108.03;;;31.21;22.84
78717;BME280;68045;50.042;14.432;2023-08-08T11:21:14;98131.56;;;29.65;23.63
78717;BME280;68045;50.042;14.432;2023-08-08T11:25:16;98111.75;;;29.10;22.90
78717;BME280;68045;50.042;14.432;2023-08-08T11:29:16;98098.94;;;27.41;26.44
78717;BME280;68045;50.042;14.432;2023-08-08T11:33:17;98085.09;;;27.58;24.97
78717;BME280;68045;50.042;14.432;2023-08-08T11:37:19;98089.78;;;25.95;26.09
78717;BME280;68045;50.042;14.432;2023-08-08T11:41:23;98075.22;;;29.27;22.76
78717;BME280;68045;50.042;14.432;2023-08-08T11:45:24;98113.16;;;28.06;21.48
78717;BME280;68045;50.042;14.432;2023-08-08T11:49:25;98086.09;;;24.06;26.67
78717;BME280;68045;50.042;14.432;2023-08-08T11:53:26;98066.69;;;25.10;26.12
78717;BME280;68045;50.042;14.432;2023-08-08T11:57:27;98077.44;;;23.83;27.53
78717;BME280;68045;50.042;14.432;2023-08-08T12:01:30;98065.22;;;26.12;25.30
78717;BME280;68045;50.042;14.432;2023-08-08T12:05:36;98053.69;;;25.91;26.87
78717;BME280;68045;50.042;14.432;2023-08-08T12:09:39;98047.69;;;24.98;26.31
78717;BME280;68045;50.042;14.432;2023-08-08T12:13:41;98075.59;;;26.10;25.28
78717;BME280;68045;50.042;14.432;2023-08-08T12:17:42;98067.97;;;24.83;26.17
78717;BME280;68045;50.042;14.432;2023-08-08T12:21:43;98049.38;;;24.61;27.86
78717;BME280;68045;50.042;14.432;2023-08-08T12:25:45;98058.22;;;25.87;26.83
78717;BME280;68045;50.042;14.432;2023-08-08T12:29:46;98044.13;;;23.97;28.21
78717;BME280;68045;50.042;14.432;2023-08-08T12:33:47;98048.19;;;23.21;29.44
78717;BME280;68045;50.042;14.432;2023-08-08T12:37:49;98057.06;;;23.13;30.16
78717;BME280;68045;50.042;14.432;2023-08-08T12:41:50;98043.44;;;23.27;30.78
78717;BME280;68045;50.042;14.432;2023-08-08T12:45:50;98042.19;;;23.07;31.09
78717;BME280;68045;50.042;14.432;2023-08-08T12:49:51;98053.38;;;23.70;31.57
78717;BME280;68045;50.042;14.432;2023-08-08T12:53:52;98043.69;;;23.77;30.90
78717;BME280;68045;50.042;14.432;2023-08-08T12:57:53;98044.69;;;23.29;30.61
78717;BME280;68045;50.042;14.432;2023-08-08T13:01:54;98047.31;;;22.52;30.74
78717;BME280;68045;50.042;14.432;2023-08-08T13:05:56;98031.88;;;22.26;31.62
78717;BME280;68045;50.042;14.432;2023-08-08T13:09:57;98025.53;;;22.96;30.94
78717;BME280;68045;50.042;14.432;2023-08-08T13:13:57;98031.88;;;23.00;31.39
78717;BME280;68045;50.042;14.432;2023-08-08T13:17:58;98056.44;;;23.08;31.08
78717;BME280;68045;50.042;14.432;2023-08-08T13:21:59;98021.69;;;22.63;31.32
78717;BME280;68045;50.042;14.432;2023-08-08T13:26:00;98038.53;;;23.03;30.88
78717;BME280;68045;50.042;14.432;2023-08-08T13:30:01;98035.31;;;22.66;32.05
78717;BME280;68045;50.042;14.432;2023-08-08T13:34:02;98021.88;;;23.18;32.59
78717;BME280;68045;50.042;14.432;2023-08-08T13:38:04;98032.63;;;22.66;32.25
78717;BME280;68045;50.042;14.432;2023-08-08T13:42:05;98022.44;;;22.37;32.22
78717;BME280;68045;50.042;14.432;2023-08-08T13:46:06;98035.69;;;22.25;32.49
78717;BME280;68045;50.042;14.432;2023-08-08T13:50:10;98012.44;;;22.29;33.47
78717;BME280;68045;50.042;14.432;2023-08-08T13:54:11;98017.78;;;22.95;33.08
78717;BME280;68045;50.042;14.432;2023-08-08T13:58:12;98015.09;;;23.03;31.13
78717;BME280;68045;50.042;14.432;2023-08-08T14:02:13;98006.03;;;23.25;31.03
78717;BME280;68045;50.042;14.432;2023-08-08T14:06:13;98009.13;;;22.41;32.31
78717;BME280;68045;50.042;14.432;2023-08-08T14:10:14;98015.56;;;22.14;32.87
78717;BME280;68045;50.042;14.432;2023-08-08T14:14:15;98007.28;;;22.59;33.22
78717;BME280;68045;50.042;14.432;2023-08-08T14:18:16;98008.00;;;22.33;31.89
78717;BME280;68045;50.042;14.432;2023-08-08T14:22:17;98006.63;;;22.36;31.21
78717;BME280;68045;50.042;14.432;2023-08-08T14:26:18;97996.34;;;22.55;30.08
78717;BME280;68045;50.042;14.432;2023-08-08T14:30:19;98004.69;;;22.28;30.92
78717;BME280;68045;50.042;14.432;2023-08-08T14:34:31;98020.72;;;22.41;31.53
78717;BME280;68045;50.042;14.432;2023-08-08T14:38:35;98019.16;;;22.58;31.66
78717;BME280;68045;50.042;14.432;2023-08-08T14:42:36;98018.69;;;22.07;32.60
78717;BME280;68045;50.042;14.432;2023-08-08T14:46:37;98017.94;;;22.15;32.80
78717;BME280;68045;50.042;14.432;2023-08-08T14:50:38;98005.56;;;22.63;32.41
78717;BME280;68045;50.042;14.432;2023-08-08T14:54:39;98035.25;;;22.40;31.99
78717;BME280;68045;50.042;14.432;2023-08-08T14:58:40;98027.88;;;22.81;32.53
78717;BME280;68045;50.042;14.432;2023-08-08T15:02:41;98032.00;;;22.12;32.60
78717;BME280;68045;50.042;14.432;2023-08-08T15:06:42;98029.72;;;22.06;32.56
78717;BME280;68045;50.042;14.432;2023-08-08T15:10:43;98019.28;;;22.44;32.93
78717;BME280;68045;50.042;14.432;2023-08-08T15:14:44;98025.88;;;22.20;33.02
78717;BME280;68045;50.042;14.432;2023-08-08T15:18:44;98034.09;;;22.24;32.14
78717;BME280;68045;50.042;14.432;2023-08-08T15:22:45;98027.59;;;21.85;32.37
78717;BME280;68045;50.042;14.432;2023-08-08T15:26:46;98029.72;;;22.06;32.75
78717;BME280;68045;50.042;14.432;2023-08-08T15:30:48;98038.84;;;21.87;32.03
78717;BME280;68045;50.042;14.432;2023-08-08T15:34:49;98051.00;;;21.62;32.11
78717;BME280;68045;50.042;14.432;2023-08-08T15:38:50;98031.84;;;21.78;33.05
78717;BME280;68045;50.042;14.432;2023-08-08T15:42:51;98039.34;;;21.36;32.45
78717;BME280;68045;50.042;14.432;2023-08-08T15:46:52;98041.69;;;21.15;32.38
78717;BME280;68045;50.042;14.432;2023-08-08T15:50:53;98055.28;;;21.19;32.77
78717;BME280;68045;50.042;14.432;2023-08-08T15:54:54;98035.25;;;21.25;32.91
78717;BME280;68045;50.042;14.432;2023-08-08T15:58:55;98056.16;;;21.50;33.45
78717;BME280;68045;50.042;14.432;2023-08-08T16:02:58;98047.03;;;21.29;33.99
78717;BME280;68045;50.042;14.432;2023-08-08T16:06:59;98057.28;;;21.13;34.36
78717;BME280;68045;50.042;14.432;2023-08-08T16:11:02;98056.94;;;20.92;34.86
78717;BME280;68045;50.042;14.432;2023-08-08T16:15:04;98052.88;;;20.95;34.71
78717;BME280;68045;50.042;14.432;2023-08-08T16:19:05;98059.41;;;21.02;35.18
78717;BME280;68045;50.042;14.432;2023-08-08T16:23:06;98064.88;;;20.97;35.77
78717;BME280;68045;50.042;14.432;2023-08-08T16:27:07;98056.00;;;21.10;35.65
78717;BME280;68045;50.042;14.432;2023-08-08T16:31:08;98065.47;;;21.08;35.32
78717;BME280;68045;50.042;14.432;2023-08-08T16:35:11;98060.19;;;21.03;35.77
78717;BME280;68045;50.042;14.432;2023-08-08T16:39:11;98061.47;;;21.05;34.78
78717;BME280;68045;50.042;14.432;2023-08-08T16:43:13;98063.59;;;20.95;35.15
78717;BME280;68045;50.042;14.432;2023-08-08T16:47:13;98061.31;;;21.02;35.59
78717;BME280;68045;50.042;14.432;2023-08-08T16:51:14;98046.44;;;20.82;35.23
78717;BME280;68045;50.042;14.432;2023-08-08T16:55:15;98064.72;;;20.94;35.62
78717;BME280;68045;50.042;14.432;2023-08-08T16:59:16;98074.00;;;20.60;35.99
78717;BME280;68045;50.042;14.432;2023-08-08T17:03:17;98072.50;;;20.68;36.55
78717;BME280;68045;50.042;14.432;2023-08-08T17:07:18;98064.16;;;20.55;36.31
78717;BME280;68045;50.042;14.432;2023-08-08T17:11:19;98083.22;;;20.40;36.53
78717;BME280;68045;50.042;14.432;2023-08-08T17:15:20;98083.63;;;20.47;37.46
78717;BME280;68045;50.042;14.432;2023-08-08T17:19:21;98077.16;;;20.35;37.09
78717;BME280;68045;50.042;14.432;2023-08-08T17:23:21;98079.25;;;20.24;36.39
78717;BME280;68045;50.042;14.432;2023-08-08T17:27:23;98077.94;;;20.21;36.91
78717;BME280;68045;50.042;14.432;2023-08-08T17:31:24;98074.97;;;20.23;36.67
78717;BME280;68045;50.042;14.432;2023-08-08T17:35:28;98078.31;;;20.15;36.96
78717;BME280;68045;50.042;14.432;2023-08-08T17:39:29;98082.22;;;20.09;37.09
78717;BME280;68045;50.042;14.432;2023-08-08T17:43:30;98090.66;;;20.16;37.50
78717;BME280;68045;50.042;14.432;2023-08-08T17:47:31;98090.75;;;20.11;37.22
78717;BME280;68045;50.042;14.432;2023-08-08T17:51:32;98100.13;;;19.94;38.06
78717;BME280;68045;50.042;14.432;2023-08-08T17:55:33;98097.03;;;19.87;38.16
78717;BME280;68045;50.042;14.432;2023-08-08T17:59:33;98108.94;;;19.81;38.29
78717;BME280;68045;50.042;14.432;2023-08-08T18:03:34;98104.59;;;19.85;38.71
78717;BME280;68045;50.042;14.432;2023-08-08T18:07:35;98101.59;;;19.87;38.86
78717;BME280;68045;50.042;14.432;2023-08-08T18:11:36;98105.34;;;19.72;39.15
78717;BME280;68045;50.042;14.432;2023-08-08T18:15:40;98111.00;;;19.70;39.31
78717;BME280;68045;50.042;14.432;2023-08-08T18:19:41;98117.03;;;19.62;39.92
78717;BME280;68045;50.042;14.432;2023-08-08T18:23:42;98115.94;;;19.63;39.71
78717;BME280;68045;50.042;14.432;2023-08-08T18:27:42;98110.34;;;19.41;40.30
78717;BME280;68045;50.042;14.432;2023-08-08T18:31:43;98121.94;;;19.36;40.26
78717;BME280;68045;50.042;14.432;2023-08-08T18:35:44;98122.53;;;19.33;40.43
78717;BME280;68045;50.042;14.432;2023-08-08T18:39:45;98110.06;;;19.42;40.29
78717;BME280;68045;50.042;14.432;2023-08-08T18:43:46;98130.63;;;19.47;40.17
78717;BME280;68045;50.042;14.432;2023-08-08T18:47:47;98142.91;;;19.48;40.50
78717;BME280;68045;50.042;14.432;2023-08-08T18:51:48;98148.81;;;19.45;40.75
78717;BME280;68045;50.042;14.432;2023-08-08T18:55:48;98145.34;;;19.44;40.76
78717;BME280;68045;50.042;14.432;2023-08-08T18:59:50;98152.91;;;19.42;41.55
78717;BME280;68045;50.042;14.432;2023-08-08T19:03:51;98149.34;;;19.28;41.54
78717;BME280;68045;50.042;14.432;2023-08-08T19:07:52;98156.28;;;19.29;41.39
78717;BME280;68045;50.042;14.432;2023-08-08T19:11:52;98149.84;;;19.30;41.96
78717;BME280;68045;50.042;14.432;2023-08-08T19:15:53;98144.94;;;19.18;41.98
78717;BME280;68045;50.042;14.432;2023-08-08T19:19:54;98144.06;;;19.23;42.48
78717;BME280;68045;50.042;14.432;2023-08-08T19:23:55;98139.31;;;19.20;42.31
78717;BME280;68045;50.042;14.432;2023-08-08T19:27:56;98147.19;;;19.11;42.31
78717;BME280;68045;50.042;14.432;2023-08-08T19:31:57;98143.34;;;18.99;42.56
78717;BME280;68045;50.042;14.432;2023-08-08T19:35:58;98147.88;;;18.98;43.10
78717;BME280;68045;50.042;14.432;2023-08-08T19:40:01;98143.97;;;18.90;43.22
78717;BME280;68045;50.042;14.432;2023-08-08T19:44:03;98141.34;;;18.85;43.07
78717;BME280;68045;50.042;14.432;2023-08-08T19:48:04;98145.41;;;18.83;43.17
78717;BME280;68045;50.042;14.432;2023-08-08T19:52:05;98144.97;;;18.76;43.64
78717;BME280;68045;50.042;14.432;2023-08-08T19:56:06;98139.44;;;18.67;43.86
78717;BME280;68045;50.042;14.432;2023-08-08T20:00:07;98147.25;;;18.58;44.18
78717;BME280;68045;50.042;14.432;2023-08-08T20:04:13;98142.69;;;18.59;44.13
78717;BME280;68045;50.042;14.432;2023-08-08T20:08:14;98135.03;;;18.52;44.37
78717;BME280;68045;50.042;14.432;2023-08-08T20:12:14;98131.22;;;18.58;44.57
78717;BME280;68045;50.042;14.432;2023-08-08T20:16:15;98137.19;;;18.50;44.92
78717;BME280;68045;50.042;14.432;2023-08-08T20:20:16;98131.50;;;18.57;44.92
78717;BME280;68045;50.042;14.432;2023-08-08T20:24:17;98144.81;;;18.62;45.39
78717;BME280;68045;50.042;14.432;2023-08-08T20:28:18;98148.69;;;18.51;45.00
78717;BME280;68045;50.042;14.432;2023-08-08T20:32:18;98141.91;;;18.58;45.23
78717;BME280;68045;50.042;14.432;2023-08-08T20:36:19;98130.25;;;18.49;45.27
78717;BME280;68045;50.042;14.432;2023-08-08T20:40:20;98135.66;;;18.44;45.66
78717;BME280;68045;50.042;14.432;2023-08-08T20:44:21;98125.75;;;18.45;45.65
78717;BME280;68045;50.042;14.432;2023-08-08T20:48:22;98124.16;;;18.44;45.45
78717;BME280;68045;50.042;14.432;2023-08-08T20:52:24;98126.38;;;18.36;45.81
78717;BME280;68045;50.042;14.432;2023-08-08T20:56:24;98127.47;;;18.35;45.97
78717;BME280;68045;50.042;14.432;2023-08-08T21:00:25;98129.91;;;18.32;46.07
78717;BME280;68045;50.042;14.432;2023-08-08T21:04:26;98140.38;;;18.28;46.30